sensor_id;sensor_type;location;lat;lon;timestamp;P1;durP1;ratioP1;P2;durP2;ratioP2
75930;SDS011;64609;47.052;15.462;2023-01-28T00:02:07;38.72;;;22.77;;
75930;SDS011;64609;47.052;15.462;2023-01-28T00:04:33;35.28;;;21.77;;
75930;SDS011;64609;47.052;15.462;2023-01-28T00:06:59;38.55;;;23.05;;
75930;SDS011;64609;47.052;15.462;2023-01-28T00:09:24;36.75;;;21.88;;
75930;SDS011;64609;47.052;15.462;2023-01-28T00:11:50;43.63;;;24.40;;
75930;SDS011;64609;47.052;15.462;2023-01-28T00:14:16;41.13;;;23.27;;
75930;SDS011;64609;47.052;15.462;2023-01-28T00:16:41;35.20;;;22.17;;
75930;SDS011;64609;47.052;15.462;2023-01-28T00:19:07;40.72;;;23.48;;
75930;SDS011;64609;47.052;15.462;2023-01-28T00:21:33;42.40;;;24.35;;
75930;SDS011;64609;47.052;15.462;2023-01-28T00:24:00;45.60;;;23.63;;
75930;SDS011;64609;47.052;15.462;2023-01-28T00:26:26;35.80;;;23.45;;
75930;SDS011;64609;47.052;15.462;2023-01-28T00:28:51;38.72;;;23.40;;
75930;SDS011;64609;47.052;15.462;2023-01-28T00:31:18;40.08;;;23.27;;
75930;SDS011;64609;47.052;15.462;2023-01-28T00:33:49;41.15;;;23.45;;
75930;SDS011;64609;47.052;15.462;2023-01-28T00:36:15;42.33;;;23.73;;
75930;SDS011;64609;47.052;15.462;2023-01-28T00:38:42;37.75;;;22.90;;
75930;SDS011;64609;47.052;15.462;2023-01-28T00:41:13;38.40;;;23.98;;
75930;SDS011;64609;47.052;15.462;2023-01-28T00:43:41;40.30;;;24.05;;
75930;SDS011;64609;47.052;15.462;2023-01-28T00:46:09;40.58;;;23.23;;
75930;SDS011;64609;47.052;15.462;2023-01-28T00:48:36;44.08;;;22.15;;
75930;SDS011;64609;47.052;15.462;2023-01-28T00:51:03;37.30;;;21.65;;
75930;SDS011;64609;47.052;15.462;2023-01-28T00:53:29;40.92;;;22.67;;
75930;SDS011;64609;47.052;15.462;2023-01-28T00:55:55;42.83;;;23.67;;
75930;SDS011;64609;47.052;15.462;2023-01-28T00:58:20;46.03;;;23.73;;
75930;SDS011;64609;47.052;15.462;2023-01-28T01:00:48;42.22;;;24.35;;
75930;SDS011;64609;47.052;15.462;2023-01-28T01:03:14;43.83;;;24.20;;
75930;SDS011;64609;47.052;15.462;2023-01-28T01:05:40;42.35;;;22.90;;
75930;SDS011;64609;47.052;15.462;2023-01-28T01:08:06;44.25;;;26.10;;
75930;SDS011;64609;47.052;15.462;2023-01-28T01:10:31;42.78;;;23.58;;
75930;SDS011;64609;47.052;15.462;2023-01-28T01:12:58;41.63;;;23.90;;
75930;SDS011;64609;47.052;15.462;2023-01-28T01:15:24;41.95;;;24.15;;
75930;SDS011;64609;47.052;15.462;2023-01-28T01:17:50;43.55;;;24.27;;
75930;SDS011;64609;47.052;15.462;2023-01-28T01:22:46;45.97;;;25.10;;
75930;SDS011;64609;47.052;15.462;2023-01-28T01:25:12;40.95;;;24.83;;
75930;SDS011;64609;47.052;15.462;2023-01-28T01:27:39;46.92;;;25.48;;
75930;SDS011;64609;47.052;15.462;2023-01-28T01:30:06;42.47;;;25.17;;
75930;SDS011;64609;47.052;15.462;2023-01-28T01:32:33;41.30;;;23.88;;
75930;SDS011;64609;47.052;15.462;2023-01-28T01:34:59;37.08;;;23.55;;
75930;SDS011;64609;47.052;15.462;2023-01-28T01:37:26;43.95;;;24.40;;
75930;SDS011;64609;47.052;15.462;2023-01-28T01:39:52;43.28;;;24.00;;
75930;SDS011;64609;47.052;15.462;2023-01-28T01:42:18;39.00;;;22.83;;
75930;SDS011;64609;47.052;15.462;2023-01-28T01:47:30;44.50;;;25.08;;
75930;SDS011;64609;47.052;15.462;2023-01-28T01:50:02;47.50;;;25.55;;
75930;SDS011;64609;47.052;15.462;2023-01-28T01:52:33;45.90;;;26.23;;
75930;SDS011;64609;47.052;15.462;2023-01-28T01:55:00;44.63;;;25.98;;
75930;SDS011;64609;47.052;15.462;2023-01-28T01:57:31;47.30;;;26.55;;
75930;SDS011;64609;47.052;15.462;2023-01-28T02:00:00;44.53;;;25.52;;
75930;SDS011;64609;47.052;15.462;2023-01-28T02:03:03;45.60;;;25.90;;
75930;SDS011;64609;47.052;15.462;2023-01-28T02:05:23;41.53;;;23.73;;
75930;SDS011;64609;47.052;15.462;2023-01-28T02:07:50;44.65;;;25.67;;
75930;SDS011;64609;47.052;15.462;2023-01-28T02:10:40;41.97;;;24.33;;
75930;SDS011;64609;47.052;15.462;2023-01-28T02:13:06;47.55;;;25.80;;
75930;SDS011;64609;47.052;15.462;2023-01-28T02:15:32;44.65;;;24.92;;
75930;SDS011;64609;47.052;15.462;2023-01-28T02:17:58;44.00;;;25.48;;
75930;SDS011;64609;47.052;15.462;2023-01-28T02:20:35;40.53;;;24.35;;
75930;SDS011;64609;47.052;15.462;2023-01-28T02:23:15;46.08;;;26.60;;
75930;SDS011;64609;47.052;15.462;2023-01-28T02:31:33;43.22;;;25.17;;
75930;SDS011;64609;47.052;15.462;2023-01-28T02:34:37;43.55;;;24.92;;
75930;SDS011;64609;47.052;15.462;2023-01-28T02:37:37;47.60;;;25.13;;
75930;SDS011;64609;47.052;15.462;2023-01-28T02:40:18;45.20;;;24.88;;
75930;SDS011;64609;47.052;15.462;2023-01-28T02:42:48;42.50;;;25.13;;
75930;SDS011;64609;47.052;15.462;2023-01-28T02:45:17;42.75;;;24.73;;
75930;SDS011;64609;47.052;15.462;2023-01-28T02:47:43;45.05;;;25.58;;
75930;SDS011;64609;47.052;15.462;2023-01-28T02:50:30;45.20;;;25.33;;
75930;SDS011;64609;47.052;15.462;2023-01-28T02:58:43;46.22;;;25.92;;
75930;SDS011;64609;47.052;15.462;2023-01-28T03:06:43;44.08;;;24.55;;
75930;SDS011;64609;47.052;15.462;2023-01-28T03:09:13;46.83;;;24.67;;
75930;SDS011;64609;47.052;15.462;2023-01-28T03:11:58;45.67;;;25.15;;
75930;SDS011;64609;47.052;15.462;2023-01-28T03:14:57;46.60;;;25.52;;
75930;SDS011;64609;47.052;15.462;2023-01-28T03:30:04;41.70;;;23.75;;
75930;SDS011;64609;47.052;15.462;2023-01-28T03:32:58;45.85;;;26.02;;
75930;SDS011;64609;47.052;15.462;2023-01-28T03:35:42;46.45;;;25.00;;
75930;SDS011;64609;47.052;15.462;2023-01-28T03:38:28;47.28;;;25.33;;
75930;SDS011;64609;47.052;15.462;2023-01-28T03:41:01;44.10;;;26.13;;
75930;SDS011;64609;47.052;15.462;2023-01-28T03:43:30;42.75;;;24.95;;
75930;SDS011;64609;47.052;15.462;2023-01-28T03:45:57;49.87;;;25.30;;
75930;SDS011;64609;47.052;15.462;2023-01-28T03:48:24;46.65;;;25.63;;
75930;SDS011;64609;47.052;15.462;2023-01-28T03:50:51;44.45;;;24.40;;
75930;SDS011;64609;47.052;15.462;2023-01-28T03:53:18;45.83;;;25.88;;
75930;SDS011;64609;47.052;15.462;2023-01-28T03:55:46;46.50;;;25.73;;
75930;SDS011;64609;47.052;15.462;2023-01-28T03:58:14;47.17;;;25.90;;
75930;SDS011;64609;47.052;15.462;2023-01-28T04:00:42;47.15;;;25.33;;
75930;SDS011;64609;47.052;15.462;2023-01-28T04:03:08;46.45;;;24.48;;
75930;SDS011;64609;47.052;15.462;2023-01-28T04:06:00;48.05;;;26.73;;
75930;SDS011;64609;47.052;15.462;2023-01-28T04:08:28;46.15;;;24.83;;
75930;SDS011;64609;47.052;15.462;2023-01-28T04:10:54;44.92;;;26.35;;
75930;SDS011;64609;47.052;15.462;2023-01-28T04:13:20;48.97;;;26.17;;
75930;SDS011;64609;47.052;15.462;2023-01-28T04:15:46;44.17;;;25.20;;
75930;SDS011;64609;47.052;15.462;2023-01-28T04:18:12;46.65;;;25.15;;
75930;SDS011;64609;47.052;15.462;2023-01-28T04:20:40;45.85;;;26.67;;
75930;SDS011;64609;47.052;15.462;2023-01-28T04:23:06;44.65;;;24.85;;
75930;SDS011;64609;47.052;15.462;2023-01-28T04:25:32;43.70;;;25.27;;
75930;SDS011;64609;47.052;15.462;2023-01-28T04:27:58;46.58;;;24.83;;
75930;SDS011;64609;47.052;15.462;2023-01-28T04:30:26;44.30;;;23.75;;
75930;SDS011;64609;47.052;15.462;2023-01-28T04:32:52;44.35;;;25.77;;
75930;SDS011;64609;47.052;15.462;2023-01-28T04:35:18;42.20;;;23.17;;
75930;SDS011;64609;47.052;15.462;2023-01-28T04:37:44;39.40;;;23.00;;
75930;SDS011;64609;47.052;15.462;2023-01-28T04:40:12;41.42;;;24.05;;
75930;SDS011;64609;47.052;15.462;2023-01-28T04:42:38;44.08;;;24.50;;
75930;SDS011;64609;47.052;15.462;2023-01-28T04:45:04;43.53;;;24.05;;
75930;SDS011;64609;47.052;15.462;2023-01-28T04:47:30;42.67;;;25.05;;
75930;SDS011;64609;47.052;15.462;2023-01-28T04:49:56;43.50;;;24.27;;
75930;SDS011;64609;47.052;15.462;2023-01-28T04:52:21;50.40;;;26.10;;
75930;SDS011;64609;47.052;15.462;2023-01-28T04:54:47;47.45;;;26.77;;
75930;SDS011;64609;47.052;15.462;2023-01-28T04:57:13;45.63;;;26.20;;
75930;SDS011;64609;47.052;15.462;2023-01-28T04:59:39;47.97;;;25.52;;
75930;SDS011;64609;47.052;15.462;2023-01-28T05:02:05;44.03;;;25.00;;
75930;SDS011;64609;47.052;15.462;2023-01-28T05:04:30;50.35;;;26.60;;
75930;SDS011;64609;47.052;15.462;2023-01-28T05:06:57;44.03;;;24.42;;
75930;SDS011;64609;47.052;15.462;2023-01-28T05:09:22;45.70;;;25.27;;
75930;SDS011;64609;47.052;15.462;2023-01-28T05:11:48;45.70;;;25.30;;
75930;SDS011;64609;47.052;15.462;2023-01-28T05:14:13;45.72;;;25.00;;
75930;SDS011;64609;47.052;15.462;2023-01-28T05:16:39;42.85;;;24.80;;
75930;SDS011;64609;47.052;15.462;2023-01-28T05:19:05;42.28;;;24.15;;
75930;SDS011;64609;47.052;15.462;2023-01-28T05:21:30;46.80;;;24.48;;
75930;SDS011;64609;47.052;15.462;2023-01-28T05:23:56;44.28;;;24.58;;
75930;SDS011;64609;47.052;15.462;2023-01-28T05:26:22;47.05;;;25.95;;
75930;SDS011;64609;47.052;15.462;2023-01-28T05:28:47;51.15;;;26.42;;
75930;SDS011;64609;47.052;15.462;2023-01-28T05:31:13;46.40;;;24.75;;
75930;SDS011;64609;47.052;15.462;2023-01-28T05:33:39;46.50;;;25.83;;
75930;SDS011;64609;47.052;15.462;2023-01-28T05:36:04;45.33;;;24.55;;
75930;SDS011;64609;47.052;15.462;2023-01-28T05:38:30;45.55;;;25.00;;
75930;SDS011;64609;47.052;15.462;2023-01-28T05:40:56;45.97;;;25.33;;
75930;SDS011;64609;47.052;15.462;2023-01-28T05:43:21;47.42;;;25.50;;
75930;SDS011;64609;47.052;15.462;2023-01-28T05:45:47;49.10;;;26.38;;
75930;SDS011;64609;47.052;15.462;2023-01-28T05:48:12;48.10;;;25.50;;
75930;SDS011;64609;47.052;15.462;2023-01-28T05:50:41;46.65;;;25.67;;
75930;SDS011;64609;47.052;15.462;2023-01-28T05:53:06;45.38;;;25.17;;
75930;SDS011;64609;47.052;15.462;2023-01-28T05:55:32;46.78;;;24.92;;
75930;SDS011;64609;47.052;15.462;2023-01-28T05:57:58;45.00;;;25.13;;
75930;SDS011;64609;47.052;15.462;2023-01-28T06:00:24;46.97;;;25.25;;
75930;SDS011;64609;47.052;15.462;2023-01-28T06:02:50;43.42;;;25.13;;
75930;SDS011;64609;47.052;15.462;2023-01-28T06:05:16;44.10;;;24.42;;
75930;SDS011;64609;47.052;15.462;2023-01-28T06:07:45;44.50;;;25.25;;
75930;SDS011;64609;47.052;15.462;2023-01-28T06:10:11;49.45;;;26.30;;
75930;SDS011;64609;47.052;15.462;2023-01-28T06:12:38;49.28;;;26.02;;
75930;SDS011;64609;47.052;15.462;2023-01-28T06:15:11;44.67;;;24.20;;
75930;SDS011;64609;47.052;15.462;2023-01-28T06:17:37;53.83;;;26.52;;
75930;SDS011;64609;47.052;15.462;2023-01-28T06:20:03;44.38;;;26.17;;
75930;SDS011;64609;47.052;15.462;2023-01-28T06:22:28;46.90;;;26.90;;
75930;SDS011;64609;47.052;15.462;2023-01-28T06:24:54;46.40;;;25.60;;
75930;SDS011;64609;47.052;15.462;2023-01-28T06:27:20;44.38;;;25.50;;
75930;SDS011;64609;47.052;15.462;2023-01-28T06:29:45;48.70;;;25.25;;
75930;SDS011;64609;47.052;15.462;2023-01-28T06:32:11;45.20;;;25.95;;
75930;SDS011;64609;47.052;15.462;2023-01-28T06:34:36;46.47;;;25.48;;
75930;SDS011;64609;47.052;15.462;2023-01-28T06:37:02;45.47;;;24.73;;
75930;SDS011;64609;47.052;15.462;2023-01-28T06:39:28;48.35;;;26.23;;
75930;SDS011;64609;47.052;15.462;2023-01-28T06:41:57;47.33;;;26.00;;
75930;SDS011;64609;47.052;15.462;2023-01-28T06:44:23;45.58;;;25.63;;
75930;SDS011;64609;47.052;15.462;2023-01-28T06:46:48;45.50;;;26.20;;
75930;SDS011;64609;47.052;15.462;2023-01-28T06:49:16;47.58;;;25.38;;
75930;SDS011;64609;47.052;15.462;2023-01-28T06:51:45;50.13;;;26.92;;
75930;SDS011;64609;47.052;15.462;2023-01-28T06:54:11;43.38;;;25.13;;
75930;SDS011;64609;47.052;15.462;2023-01-28T06:56:37;48.33;;;26.45;;
75930;SDS011;64609;47.052;15.462;2023-01-28T06:59:02;46.72;;;26.02;;
75930;SDS011;64609;47.052;15.462;2023-01-28T07:01:28;47.72;;;25.67;;
75930;SDS011;64609;47.052;15.462;2023-01-28T07:03:55;43.25;;;25.38;;
75930;SDS011;64609;47.052;15.462;2023-01-28T07:06:21;46.88;;;25.92;;
75930;SDS011;64609;47.052;15.462;2023-01-28T07:08:49;46.90;;;27.35;;
75930;SDS011;64609;47.052;15.462;2023-01-28T07:11:15;46.78;;;25.58;;
75930;SDS011;64609;47.052;15.462;2023-01-28T07:13:40;45.03;;;25.75;;
75930;SDS011;64609;47.052;15.462;2023-01-28T07:16:07;46.30;;;25.13;;
75930;SDS011;64609;47.052;15.462;2023-01-28T07:18:33;45.72;;;25.67;;
75930;SDS011;64609;47.052;15.462;2023-01-28T07:20:59;41.78;;;24.73;;
75930;SDS011;64609;47.052;15.462;2023-01-28T07:23:24;43.28;;;25.73;;
75930;SDS011;64609;47.052;15.462;2023-01-28T07:25:50;47.00;;;26.23;;
75930;SDS011;64609;47.052;15.462;2023-01-28T07:28:16;44.42;;;24.63;;
75930;SDS011;64609;47.052;15.462;2023-01-28T07:30:49;47.85;;;26.05;;
75930;SDS011;64609;47.052;15.462;2023-01-28T07:33:15;43.47;;;25.57;;
75930;SDS011;64609;47.052;15.462;2023-01-28T07:35:41;46.13;;;26.30;;
75930;SDS011;64609;47.052;15.462;2023-01-28T07:38:08;46.03;;;24.88;;
75930;SDS011;64609;47.052;15.462;2023-01-28T07:40:33;41.90;;;24.17;;
75930;SDS011;64609;47.052;15.462;2023-01-28T07:42:59;46.97;;;25.60;;
75930;SDS011;64609;47.052;15.462;2023-01-28T07:45:25;43.97;;;24.77;;
75930;SDS011;64609;47.052;15.462;2023-01-28T07:47:52;44.45;;;25.13;;
75930;SDS011;64609;47.052;15.462;2023-01-28T07:50:19;40.35;;;23.75;;
75930;SDS011;64609;47.052;15.462;2023-01-28T07:52:44;41.67;;;23.73;;
75930;SDS011;64609;47.052;15.462;2023-01-28T07:55:10;44.58;;;25.15;;
75930;SDS011;64609;47.052;15.462;2023-01-28T07:57:46;46.17;;;25.02;;
75930;SDS011;64609;47.052;15.462;2023-01-28T08:00:16;40.03;;;23.15;;
75930;SDS011;64609;47.052;15.462;2023-01-28T08:02:42;37.80;;;23.25;;
75930;SDS011;64609;47.052;15.462;2023-01-28T08:05:17;36.53;;;22.75;;
75930;SDS011;64609;47.052;15.462;2023-01-28T08:07:44;41.38;;;22.70;;
75930;SDS011;64609;47.052;15.462;2023-01-28T08:10:12;40.20;;;22.15;;
75930;SDS011;64609;47.052;15.462;2023-01-28T08:12:38;41.35;;;22.85;;
75930;SDS011;64609;47.052;15.462;2023-01-28T08:15:07;38.72;;;22.05;;
75930;SDS011;64609;47.052;15.462;2023-01-28T08:17:33;40.83;;;23.52;;
75930;SDS011;64609;47.052;15.462;2023-01-28T08:19:58;42.30;;;24.55;;
75930;SDS011;64609;47.052;15.462;2023-01-28T08:22:25;42.90;;;24.33;;
75930;SDS011;64609;47.052;15.462;2023-01-28T08:24:51;41.53;;;23.05;;
75930;SDS011;64609;47.052;15.462;2023-01-28T08:27:16;42.20;;;24.13;;
75930;SDS011;64609;47.052;15.462;2023-01-28T08:29:42;43.67;;;23.75;;
75930;SDS011;64609;47.052;15.462;2023-01-28T08:32:08;42.70;;;23.65;;
75930;SDS011;64609;47.052;15.462;2023-01-28T08:34:34;42.38;;;23.88;;
75930;SDS011;64609;47.052;15.462;2023-01-28T08:37:00;42.92;;;23.85;;
75930;SDS011;64609;47.052;15.462;2023-01-28T08:39:26;46.95;;;24.55;;
75930;SDS011;64609;47.052;15.462;2023-01-28T08:41:52;41.08;;;24.63;;
75930;SDS011;64609;47.052;15.462;2023-01-28T08:44:17;39.80;;;23.95;;
75930;SDS011;64609;47.052;15.462;2023-01-28T08:46:43;42.60;;;24.60;;
75930;SDS011;64609;47.052;15.462;2023-01-28T08:49:09;41.47;;;24.67;;
75930;SDS011;64609;47.052;15.462;2023-01-28T08:51:34;43.13;;;24.52;;
75930;SDS011;64609;47.052;15.462;2023-01-28T08:54:00;35.38;;;22.30;;
75930;SDS011;64609;47.052;15.462;2023-01-28T08:56:26;39.75;;;23.52;;
75930;SDS011;64609;47.052;15.462;2023-01-28T08:58:54;43.60;;;24.42;;
75930;SDS011;64609;47.052;15.462;2023-01-28T09:01:22;41.42;;;24.20;;
75930;SDS011;64609;47.052;15.462;2023-01-28T09:03:48;42.22;;;24.73;;
75930;SDS011;64609;47.052;15.462;2023-01-28T09:06:13;42.72;;;25.17;;
75930;SDS011;64609;47.052;15.462;2023-01-28T09:08:39;43.92;;;25.35;;
75930;SDS011;64609;47.052;15.462;2023-01-28T09:11:04;45.13;;;26.98;;
75930;SDS011;64609;47.052;15.462;2023-01-28T09:13:32;47.15;;;27.85;;
75930;SDS011;64609;47.052;15.462;2023-01-28T09:15:58;48.78;;;27.65;;
75930;SDS011;64609;47.052;15.462;2023-01-28T09:18:23;43.55;;;25.95;;
75930;SDS011;64609;47.052;15.462;2023-01-28T09:20:49;46.63;;;26.58;;
75930;SDS011;64609;47.052;15.462;2023-01-28T09:23:14;44.58;;;26.13;;
75930;SDS011;64609;47.052;15.462;2023-01-28T09:25:40;43.95;;;26.63;;
75930;SDS011;64609;47.052;15.462;2023-01-28T09:28:06;47.17;;;26.55;;
75930;SDS011;64609;47.052;15.462;2023-01-28T09:30:32;44.85;;;25.60;;
75930;SDS011;64609;47.052;15.462;2023-01-28T09:32:59;40.00;;;24.35;;
75930;SDS011;64609;47.052;15.462;2023-01-28T09:35:24;46.83;;;26.05;;
75930;SDS011;64609;47.052;15.462;2023-01-28T09:37:50;41.22;;;24.77;;
75930;SDS011;64609;47.052;15.462;2023-01-28T09:40:18;44.20;;;25.45;;
75930;SDS011;64609;47.052;15.462;2023-01-28T09:42:58;42.63;;;24.90;;
75930;SDS011;64609;47.052;15.462;2023-01-28T09:45:54;38.10;;;23.55;;
75930;SDS011;64609;47.052;15.462;2023-01-28T09:48:28;42.15;;;24.25;;
75930;SDS011;64609;47.052;15.462;2023-01-28T09:51:00;43.58;;;25.05;;
75930;SDS011;64609;47.052;15.462;2023-01-28T09:53:30;42.92;;;24.08;;
75930;SDS011;64609;47.052;15.462;2023-01-28T09:56:01;39.78;;;23.85;;
75930;SDS011;64609;47.052;15.462;2023-01-28T09:58:31;43.80;;;24.77;;
75930;SDS011;64609;47.052;15.462;2023-01-28T10:20:16;41.63;;;25.63;;
75930;SDS011;64609;47.052;15.462;2023-01-28T10:23:05;42.70;;;26.17;;
75930;SDS011;64609;47.052;15.462;2023-01-28T10:25:38;45.65;;;26.52;;
75930;SDS011;64609;47.052;15.462;2023-01-28T10:28:13;47.28;;;27.55;;
75930;SDS011;64609;47.052;15.462;2023-01-28T10:30:44;46.42;;;26.42;;
75930;SDS011;64609;47.052;15.462;2023-01-28T10:35:51;46.47;;;27.13;;
75930;SDS011;64609;47.052;15.462;2023-01-28T10:38:20;45.17;;;27.77;;
75930;SDS011;64609;47.052;15.462;2023-01-28T10:40:47;44.15;;;25.67;;
75930;SDS011;64609;47.052;15.462;2023-01-28T10:43:18;42.72;;;26.10;;
75930;SDS011;64609;47.052;15.462;2023-01-28T10:48:39;47.92;;;27.65;;
75930;SDS011;64609;47.052;15.462;2023-01-28T10:51:10;47.20;;;27.35;;
75930;SDS011;64609;47.052;15.462;2023-01-28T10:53:43;45.95;;;28.17;;
75930;SDS011;64609;47.052;15.462;2023-01-28T10:56:23;43.15;;;25.85;;
75930;SDS011;64609;47.052;15.462;2023-01-28T11:01:23;51.03;;;29.77;;
75930;SDS011;64609;47.052;15.462;2023-01-28T11:03:55;50.63;;;28.70;;
75930;SDS011;64609;47.052;15.462;2023-01-28T11:06:26;44.83;;;26.67;;
75930;SDS011;64609;47.052;15.462;2023-01-28T11:11:25;46.05;;;26.35;;
75930;SDS011;64609;47.052;15.462;2023-01-28T11:13:52;49.50;;;26.63;;
75930;SDS011;64609;47.052;15.462;2023-01-28T11:16:19;44.78;;;26.88;;
75930;SDS011;64609;47.052;15.462;2023-01-28T11:18:50;47.08;;;26.95;;
75930;SDS011;64609;47.052;15.462;2023-01-28T11:21:26;47.10;;;27.50;;
75930;SDS011;64609;47.052;15.462;2023-01-28T11:24:13;47.00;;;27.52;;
75930;SDS011;64609;47.052;15.462;2023-01-28T11:26:44;44.05;;;24.70;;
75930;SDS011;64609;47.052;15.462;2023-01-28T11:29:21;41.13;;;25.58;;
75930;SDS011;64609;47.052;15.462;2023-01-28T11:31:47;43.88;;;24.67;;
75930;SDS011;64609;47.052;15.462;2023-01-28T11:34:17;42.72;;;25.65;;
75930;SDS011;64609;47.052;15.462;2023-01-28T11:36:50;46.25;;;25.67;;
75930;SDS011;64609;47.052;15.462;2023-01-28T11:39:26;41.38;;;24.05;;
75930;SDS011;64609;47.052;15.462;2023-01-28T11:41:53;45.63;;;24.88;;
75930;SDS011;64609;47.052;15.462;2023-01-28T11:44:28;46.63;;;26.05;;
75930;SDS011;64609;47.052;15.462;2023-01-28T11:49:33;45.53;;;25.55;;
75930;SDS011;64609;47.052;15.462;2023-01-28T11:52:06;44.75;;;25.65;;
75930;SDS011;64609;47.052;15.462;2023-01-28T11:54:51;42.88;;;25.67;;
75930;SDS011;64609;47.052;15.462;2023-01-28T11:57:37;42.88;;;26.77;;
75930;SDS011;64609;47.052;15.462;2023-01-28T12:05:52;49.17;;;25.67;;
75930;SDS011;64609;47.052;15.462;2023-01-28T12:08:22;50.70;;;31.75;;
75930;SDS011;64609;47.052;15.462;2023-01-28T12:14:04;47.17;;;26.40;;
75930;SDS011;64609;47.052;15.462;2023-01-28T12:24:54;44.08;;;26.40;;
75930;SDS011;64609;47.052;15.462;2023-01-28T12:33:44;44.10;;;26.95;;
75930;SDS011;64609;47.052;15.462;2023-01-28T12:42:32;48.42;;;26.50;;
75930;SDS011;64609;47.052;15.462;2023-01-28T12:45:15;50.40;;;28.05;;
75930;SDS011;64609;47.052;15.462;2023-01-28T12:47:54;52.55;;;28.42;;
75930;SDS011;64609;47.052;15.462;2023-01-28T12:50:27;48.75;;;26.48;;
75930;SDS011;64609;47.052;15.462;2023-01-28T12:53:13;44.10;;;27.60;;
75930;SDS011;64609;47.052;15.462;2023-01-28T12:55:45;51.10;;;29.95;;
75930;SDS011;64609;47.052;15.462;2023-01-28T12:58:20;45.00;;;29.92;;
75930;SDS011;64609;47.052;15.462;2023-01-28T13:00:53;49.10;;;27.15;;
75930;SDS011;64609;47.052;15.462;2023-01-28T13:06:06;41.67;;;26.05;;
75930;SDS011;64609;47.052;15.462;2023-01-28T13:08:37;41.38;;;25.38;;
75930;SDS011;64609;47.052;15.462;2023-01-28T13:11:02;43.25;;;25.85;;
75930;SDS011;64609;47.052;15.462;2023-01-28T13:15:57;44.08;;;25.45;;
75930;SDS011;64609;47.052;15.462;2023-01-28T13:18:33;44.60;;;27.50;;
75930;SDS011;64609;47.052;15.462;2023-01-28T13:23:49;41.28;;;25.10;;
75930;SDS011;64609;47.052;15.462;2023-01-28T13:26:41;47.55;;;27.23;;
75930;SDS011;64609;47.052;15.462;2023-01-28T13:31:59;44.70;;;25.27;;
75930;SDS011;64609;47.052;15.462;2023-01-28T13:36:57;45.97;;;24.75;;
75930;SDS011;64609;47.052;15.462;2023-01-28T13:39:25;44.55;;;26.00;;
75930;SDS011;64609;47.052;15.462;2023-01-28T13:41:54;44.97;;;26.05;;
75930;SDS011;64609;47.052;15.462;2023-01-28T13:44:32;46.60;;;25.60;;
75930;SDS011;64609;47.052;15.462;2023-01-28T13:50:04;39.78;;;24.90;;
75930;SDS011;64609;47.052;15.462;2023-01-28T13:52:49;46.10;;;26.42;;
75930;SDS011;64609;47.052;15.462;2023-01-28T13:55:22;40.25;;;24.42;;
75930;SDS011;64609;47.052;15.462;2023-01-28T14:12:14;44.08;;;26.67;;
75930;SDS011;64609;47.052;15.462;2023-01-28T14:20:32;43.55;;;26.17;;
75930;SDS011;64609;47.052;15.462;2023-01-28T14:23:16;45.25;;;25.80;;
75930;SDS011;64609;47.052;15.462;2023-01-28T14:28:13;43.83;;;26.23;;
75930;SDS011;64609;47.052;15.462;2023-01-28T14:31:01;47.05;;;26.70;;
75930;SDS011;64609;47.052;15.462;2023-01-28T14:33:36;42.38;;;25.88;;
75930;SDS011;64609;47.052;15.462;2023-01-28T14:36:02;47.30;;;24.88;;
75930;SDS011;64609;47.052;15.462;2023-01-28T14:38:28;44.47;;;27.23;;
75930;SDS011;64609;47.052;15.462;2023-01-28T14:41:00;42.15;;;24.90;;
75930;SDS011;64609;47.052;15.462;2023-01-28T14:43:28;44.20;;;25.67;;
75930;SDS011;64609;47.052;15.462;2023-01-28T14:54:03;47.05;;;27.65;;
75930;SDS011;64609;47.052;15.462;2023-01-28T14:57:06;40.63;;;25.35;;
75930;SDS011;64609;47.052;15.462;2023-01-28T14:59:58;45.17;;;27.83;;
75930;SDS011;64609;47.052;15.462;2023-01-28T15:02:25;44.05;;;26.08;;
75930;SDS011;64609;47.052;15.462;2023-01-28T15:05:06;47.17;;;26.63;;
75930;SDS011;64609;47.052;15.462;2023-01-28T15:07:44;44.92;;;26.83;;
75930;SDS011;64609;47.052;15.462;2023-01-28T15:10:46;45.83;;;27.03;;
75930;SDS011;64609;47.052;15.462;2023-01-28T15:13:09;44.88;;;26.88;;
75930;SDS011;64609;47.052;15.462;2023-01-28T15:15:39;46.17;;;26.20;;
75930;SDS011;64609;47.052;15.462;2023-01-28T15:20:43;46.22;;;26.70;;
75930;SDS011;64609;47.052;15.462;2023-01-28T15:23:14;53.35;;;29.67;;
75930;SDS011;64609;47.052;15.462;2023-01-28T15:25:44;47.58;;;28.08;;
75930;SDS011;64609;47.052;15.462;2023-01-28T15:31:14;44.00;;;26.00;;
75930;SDS011;64609;47.052;15.462;2023-01-28T15:33:54;44.28;;;26.40;;
75930;SDS011;64609;47.052;15.462;2023-01-28T15:36:20;46.80;;;27.50;;
75930;SDS011;64609;47.052;15.462;2023-01-28T15:38:50;46.33;;;26.92;;
75930;SDS011;64609;47.052;15.462;2023-01-28T15:41:16;52.13;;;27.58;;
75930;SDS011;64609;47.052;15.462;2023-01-28T15:43:45;52.22;;;30.52;;
75930;SDS011;64609;47.052;15.462;2023-01-28T15:46:13;50.58;;;30.00;;
75930;SDS011;64609;47.052;15.462;2023-01-28T15:48:46;51.63;;;29.90;;
75930;SDS011;64609;47.052;15.462;2023-01-28T15:51:23;53.28;;;30.38;;
75930;SDS011;64609;47.052;15.462;2023-01-28T15:53:55;50.08;;;28.65;;
75930;SDS011;64609;47.052;15.462;2023-01-28T15:56:31;47.67;;;27.13;;
75930;SDS011;64609;47.052;15.462;2023-01-28T16:04:55;47.75;;;27.50;;
75930;SDS011;64609;47.052;15.462;2023-01-28T16:07:23;47.33;;;28.63;;
75930;SDS011;64609;47.052;15.462;2023-01-28T16:09:50;54.25;;;28.42;;
75930;SDS011;64609;47.052;15.462;2023-01-28T16:12:17;45.03;;;27.95;;
75930;SDS011;64609;47.052;15.462;2023-01-28T16:14:48;134.75;;;75.57;;
75930;SDS011;64609;47.052;15.462;2023-01-28T16:17:21;203.30;;;109.60;;
75930;SDS011;64609;47.052;15.462;2023-01-28T16:20:03;83.07;;;58.60;;
75930;SDS011;64609;47.052;15.462;2023-01-28T16:22:35;52.58;;;30.50;;
75930;SDS011;64609;47.052;15.462;2023-01-28T16:25:03;55.45;;;35.13;;
75930;SDS011;64609;47.052;15.462;2023-01-28T16:27:47;51.47;;;28.65;;
75930;SDS011;64609;47.052;15.462;2023-01-28T16:30:14;45.53;;;27.35;;
75930;SDS011;64609;47.052;15.462;2023-01-28T16:32:40;49.88;;;27.98;;
75930;SDS011;64609;47.052;15.462;2023-01-28T16:37:45;44.42;;;25.95;;
75930;SDS011;64609;47.052;15.462;2023-01-28T16:40:12;51.58;;;28.00;;
75930;SDS011;64609;47.052;15.462;2023-01-28T16:42:39;46.13;;;26.92;;
75930;SDS011;64609;47.052;15.462;2023-01-28T16:45:05;48.35;;;27.77;;
75930;SDS011;64609;47.052;15.462;2023-01-28T16:47:31;49.47;;;27.25;;
75930;SDS011;64609;47.052;15.462;2023-01-28T16:49:59;47.40;;;27.50;;
75930;SDS011;64609;47.052;15.462;2023-01-28T16:52:24;44.65;;;26.92;;
75930;SDS011;64609;47.052;15.462;2023-01-28T16:54:50;51.10;;;28.55;;
75930;SDS011;64609;47.052;15.462;2023-01-28T16:57:16;45.42;;;26.75;;
75930;SDS011;64609;47.052;15.462;2023-01-28T16:59:44;47.88;;;27.45;;
75930;SDS011;64609;47.052;15.462;2023-01-28T17:02:13;43.90;;;26.50;;